Terminal Aerodrome Forecast
Issued by NWS Mt. Holly, NJ

Home | Current Version | Previous Version | Text Only | Print | Product List | Glossary On
Versions: 1 2 3 4 5 6 7 8 9 10 11 12 13 14 15 16 17 18 19 20 21
000
FTUS41 KPHI 161123
TAFABE
TAF
KABE 161123Z 1612/1712 24007KT P6SM SCT150
     FM161600 25011KT P6SM BKN035
     FM162300 28006KT P6SM BKN040
     FM170500 VRB02KT P6SM OVC035=

USA.gov is the U.S. government's official web portal to all federal, state and local government web resources and services.